Farrar, Missouri
Current Conditions -  °F | °C
As of 3:52 PM on Monday 20 Oct 2014 (Local Time) from KMDH Reporting Station
Clear Clear  
Wind Chill: 74°   Ceiling: Unl
Heat Index: 74°   Visibility: 10mi
Dew Point: 51°   Wind: 10mph
Humidity: 45%   Direction: 290°WNW
Pressure: 29.92"   Gusts: NA
Location:  37.7°N, 89.69°W
Report Text: KMDH 202052Z 29009KT 10SM CLR 23/11 A2992 RMK AO2 SLP130 T02330106 56014
Loading
Personal Weather Stations






























Interactive Weather Map
Tropical Storm Tracking
New forecast layout! Learn more

10-Day Weather Forecast

Advertisements
Track Severe Weather on mobile